Terminal Aerodrome Forecast
Issued by NWS Tampa Bay Area, FL

Home | Current Version | Previous Version | Text Only | Print | Product List | Glossary On
Versions: 1 2 3 4 5 6 7 8 9 10 11 12 13 14 15 16 17 18 19 20 21 22 23
444
FTUS42 KTBW 071145
TAFFMY
TAF
KFMY 071145Z 0712/0812 33011KT P6SM VCSH SCT025 OVC100
     FM071500 34016G24KT P6SM SCT050 SCT100
     FM080000 32010KT P6SM FEW250
     FM080400 33007KT P6SM SKC=

USA.gov is the U.S. government's official web portal to all federal, state and local government web resources and services.